createdAt,value
2023-05-14T00:00:04.052Z,12.20
2023-05-14T00:01:06.241Z,12.10
2023-05-14T00:02:03.683Z,12.20
2023-05-14T00:03:03.411Z,12.10
2023-05-14T00:04:03.364Z,12.10
2023-05-14T00:05:03.331Z,12.10
2023-05-14T00:06:06.540Z,12.00
2023-05-14T00:07:03.978Z,12.00
2023-05-14T00:08:06.079Z,11.90
2023-05-14T00:09:03.604Z,11.90
2023-05-14T00:10:06.175Z,11.90
2023-05-14T00:11:04.060Z,11.90
2023-05-14T00:12:03.438Z,11.80
2023-05-14T00:13:04.136Z,11.80
2023-05-14T00:14:03.814Z,11.70
2023-05-14T00:15:13.676Z,11.70
2023-05-14T00:16:05.874Z,11.70
2023-05-14T00:17:03.453Z,11.70
2023-05-14T00:18:04.107Z,11.60
2023-05-14T00:19:06.319Z,11.40
2023-05-14T00:20:06.548Z,11.50
2023-05-14T00:21:04.014Z,11.50
2023-05-14T00:22:03.742Z,11.50
2023-05-14T00:23:03.571Z,8.20
2023-05-14T00:24:03.343Z,11.40
2023-05-14T00:25:04.003Z,11.30
2023-05-14T00:26:06.197Z,11.30
2023-05-14T00:27:06.261Z,11.10
2023-05-14T00:28:03.678Z,11.20
2023-05-14T00:29:03.365Z,11.20
2023-05-14T00:30:06.538Z,11.00
2023-05-14T00:31:04.116Z,11.10
2023-05-14T00:32:03.778Z,11.10
2023-05-14T00:33:03.419Z,11.00
2023-05-14T00:34:03.391Z,11.00
2023-05-14T00:35:04.110Z,11.00
2023-05-14T00:36:06.319Z,11.00
2023-05-14T00:37:06.310Z,10.90
2023-05-14T00:38:03.786Z,10.90
2023-05-14T00:39:08.492Z,10.90
2023-05-14T00:40:04.014Z,10.90
2023-05-14T00:41:03.675Z,10.90
2023-05-14T00:42:03.361Z,10.90
2023-05-14T00:43:04.001Z,10.80
2023-05-14T00:44:03.629Z,10.80
2023-05-14T00:45:03.381Z,10.80
2023-05-14T00:46:04.073Z,10.70
2023-05-14T00:47:03.843Z,10.80
2023-05-14T00:48:03.776Z,10.70
2023-05-14T00:49:06.140Z,10.60
2023-05-14T00:50:03.747Z,10.60
2023-05-14T00:51:03.387Z,10.60
2023-05-14T00:52:09.152Z,10.60
2023-05-14T00:53:03.605Z,10.50
2023-05-14T00:54:03.744Z,10.50
2023-05-14T00:55:03.416Z,10.40
2023-05-14T00:56:04.212Z,10.40
2023-05-14T00:58:03.479Z,10.40
2023-05-14T00:59:06.713Z,10.40
2023-05-14T01:00:08.410Z,10.40
2023-05-14T01:01:03.958Z,10.40
2023-05-14T01:02:03.572Z,10.40
2023-05-14T01:03:03.512Z,10.30
2023-05-14T01:04:03.449Z,10.40
2023-05-14T01:05:04.166Z,10.40
2023-05-14T01:06:03.721Z,10.40
2023-05-14T01:07:03.484Z,10.40
2023-05-14T01:08:03.430Z,10.40
2023-05-14T01:09:06.582Z,10.30
2023-05-14T01:10:04.154Z,10.30
2023-05-14T01:11:03.796Z,10.30
2023-05-14T01:12:03.411Z,10.20
2023-05-14T01:13:04.018Z,10.20
2023-05-14T01:14:03.672Z,10.10
2023-05-14T01:15:03.416Z,10.10
2023-05-14T01:16:09.122Z,10.10
2023-05-14T01:18:06.019Z,10.10
2023-05-14T01:19:03.717Z,10.10
2023-05-14T01:20:06.070Z,10.00
2023-05-14T01:21:03.671Z,10.00
2023-05-14T01:22:03.416Z,10.00
2023-05-14T01:23:04.149Z,10.00
2023-05-14T01:24:06.247Z,9.90
2023-05-14T01:25:03.722Z,10.00
2023-05-14T01:26:03.467Z,10.00
2023-05-14T01:27:03.446Z,9.90
2023-05-14T01:28:04.171Z,9.90
2023-05-14T01:29:03.804Z,9.90
2023-05-14T01:30:03.449Z,9.90
2023-05-14T01:31:04.080Z,9.80
2023-05-14T01:32:08.877Z,9.90
2023-05-14T01:33:06.100Z,9.80
2023-05-14T01:34:06.181Z,9.80
2023-05-14T01:35:03.671Z,9.80
2023-05-14T01:36:03.437Z,9.80
2023-05-14T01:37:04.048Z,9.80
2023-05-14T01:38:06.277Z,9.80
2023-05-14T01:39:03.830Z,9.70
2023-05-14T01:40:03.443Z,9.70
2023-05-14T01:41:04.209Z,9.80
2023-05-14T01:43:03.472Z,9.80
2023-05-14T01:44:03.435Z,9.80
2023-05-14T01:45:06.592Z,9.80
2023-05-14T01:46:04.082Z,9.80
2023-05-14T01:47:03.728Z,9.70
2023-05-14T01:49:03.477Z,9.70
2023-05-14T01:51:06.749Z,9.70
2023-05-14T01:53:06.667Z,9.70
2023-05-14T01:54:06.774Z,9.70
2023-05-14T01:55:10.893Z,9.60
2023-05-14T01:56:06.026Z,9.60
2023-05-14T01:57:03.581Z,9.60
2023-05-14T01:58:03.473Z,9.50
2023-05-14T01:59:04.045Z,9.50
2023-05-14T02:01:08.663Z,9.50
2023-05-14T02:02:03.519Z,9.50
2023-05-14T02:03:03.544Z,9.40
2023-05-14T02:04:03.491Z,9.40
2023-05-14T02:05:06.982Z,9.40
2023-05-14T02:06:03.718Z,9.40
2023-05-14T02:07:03.492Z,9.40
2023-05-14T02:08:03.504Z,9.40
2023-05-14T02:09:04.121Z,9.30
2023-05-14T02:10:06.272Z,9.30
2023-05-14T02:11:03.985Z,9.30
2023-05-14T02:12:03.584Z,9.30
2023-05-14T02:13:08.365Z,9.30
2023-05-14T02:14:03.833Z,9.30
2023-05-14T02:15:06.024Z,9.30
2023-05-14T02:16:03.511Z,9.30
2023-05-14T02:17:03.542Z,9.30
2023-05-14T02:19:03.524Z,9.30
2023-05-14T02:21:04.077Z,9.30
2023-05-14T02:22:06.202Z,9.30
2023-05-14T02:23:03.660Z,9.30
2023-05-14T02:24:03.500Z,9.30
2023-05-14T02:25:11.755Z,9.30
2023-05-14T02:27:03.509Z,9.20
2023-05-14T02:28:06.687Z,9.20
2023-05-14T02:29:03.530Z,9.20
2023-05-14T02:30:03.524Z,9.20
2023-05-14T02:32:03.810Z,9.10
2023-05-14T02:33:03.677Z,9.20
2023-05-14T02:34:03.484Z,9.10
2023-05-14T02:35:05.756Z,9.10
2023-05-14T02:36:04.179Z,9.10
2023-05-14T02:37:03.833Z,9.10
2023-05-14T02:38:03.510Z,9.10
2023-05-14T02:39:08.260Z,9.10
2023-05-14T02:40:08.757Z,9.10
2023-05-14T02:41:03.581Z,9.10
2023-05-14T02:42:03.568Z,9.10
2023-05-14T02:44:04.079Z,9.10
2023-05-14T02:45:03.702Z,9.10
2023-05-14T02:46:03.498Z,9.10
2023-05-14T02:47:06.678Z,9.10
2023-05-14T02:49:03.505Z,9.10
2023-05-14T02:50:09.230Z,9.10
2023-05-14T02:51:03.703Z,9.10
2023-05-14T02:52:05.930Z,9.10
2023-05-14T02:53:03.528Z,9.10
2023-05-14T02:54:03.495Z,9.10
2023-05-14T02:55:04.184Z,9.10
2023-05-14T02:56:03.758Z,9.10
2023-05-14T02:57:08.495Z,9.20
2023-05-14T02:58:03.593Z,9.10
2023-05-14T02:59:08.381Z,9.10
2023-05-14T03:00:03.921Z,9.10
2023-05-14T03:01:03.614Z,9.10
2023-05-14T03:02:03.976Z,9.10
2023-05-14T03:03:06.147Z,9.10
2023-05-14T03:04:06.146Z,9.10
2023-05-14T03:05:03.736Z,9.00
2023-05-14T03:06:03.537Z,9.00
2023-05-14T03:07:03.581Z,9.00
2023-05-14T03:08:03.556Z,9.00
2023-05-14T03:09:03.576Z,9.00
2023-05-14T03:11:03.829Z,9.00
2023-05-14T03:12:06.090Z,9.00
2023-05-14T03:13:06.394Z,9.00
2023-05-14T03:14:03.904Z,9.00
2023-05-14T03:15:06.137Z,9.00
2023-05-14T03:16:03.667Z,9.00
2023-05-14T03:17:03.746Z,9.00
2023-05-14T03:18:03.698Z,9.00
2023-05-14T03:19:03.618Z,9.00
2023-05-14T03:20:03.639Z,8.90
2023-05-14T03:22:03.560Z,9.00
2023-05-14T03:23:03.581Z,9.00
2023-05-14T03:25:03.563Z,9.00
2023-05-14T03:26:06.736Z,9.00
2023-05-14T03:28:03.550Z,9.00
2023-05-14T03:29:03.659Z,9.00
2023-05-14T03:31:03.610Z,9.00
2023-05-14T03:32:03.570Z,9.00
2023-05-14T03:33:05.741Z,9.00
2023-05-14T03:34:03.540Z,9.00
2023-05-14T03:35:04.219Z,9.00
2023-05-14T03:36:04.014Z,9.00
2023-05-14T03:37:06.292Z,9.00
2023-05-14T03:38:03.787Z,9.00
2023-05-14T03:39:03.551Z,9.00
2023-05-14T03:40:03.590Z,9.00
2023-05-14T03:41:03.595Z,8.90
2023-05-14T03:42:08.473Z,8.90
2023-05-14T03:43:06.669Z,9.00
2023-05-14T03:44:03.611Z,9.00
2023-05-14T03:45:08.409Z,9.00
2023-05-14T03:46:03.992Z,8.90
2023-05-14T03:47:06.400Z,8.90
2023-05-14T03:48:03.959Z,9.00
2023-05-14T03:49:03.696Z,8.90
2023-05-14T03:51:03.584Z,9.00
2023-05-14T03:52:08.296Z,9.00
2023-05-14T03:53:03.899Z,9.00
2023-05-14T03:54:03.607Z,9.00
2023-05-14T03:55:03.618Z,9.00
2023-05-14T03:56:03.618Z,9.10
2023-05-14T03:57:03.607Z,9.00
2023-05-14T03:58:03.579Z,9.10
2023-05-14T03:59:03.646Z,9.10
2023-05-14T04:00:03.622Z,9.00
2023-05-14T04:01:03.611Z,9.10
2023-05-14T04:02:03.650Z,9.10
2023-05-14T04:03:03.742Z,9.00
2023-05-14T04:04:03.769Z,9.10
2023-05-14T04:05:03.673Z,9.10
2023-05-14T04:06:03.631Z,9.10
2023-05-14T04:07:03.600Z,9.10
2023-05-14T04:08:03.595Z,9.10
2023-05-14T04:09:06.443Z,9.20
2023-05-14T04:10:04.602Z,9.10
2023-05-14T04:11:03.625Z,9.10
2023-05-14T04:12:03.903Z,9.10
2023-05-14T04:13:03.607Z,9.20
2023-05-14T04:14:03.646Z,9.20
2023-05-14T04:15:03.643Z,9.20
2023-05-14T04:16:03.661Z,9.30
2023-05-14T04:17:03.681Z,9.30
2023-05-14T04:18:03.652Z,9.40
2023-05-14T04:19:03.710Z,9.40
2023-05-14T04:20:08.544Z,9.40
2023-05-14T04:21:06.607Z,9.40
2023-05-14T04:22:09.118Z,9.40
2023-05-14T04:23:07.568Z,9.50
2023-05-14T04:24:04.079Z,9.40
2023-05-14T04:25:06.674Z,9.50
2023-05-14T04:26:03.622Z,9.50
2023-05-14T04:27:03.636Z,9.50
2023-05-14T04:28:03.630Z,9.50
2023-05-14T04:29:03.611Z,9.50
2023-05-14T04:30:03.627Z,9.40
2023-05-14T04:31:03.619Z,9.40
2023-05-14T04:32:03.758Z,9.50
2023-05-14T04:33:04.269Z,9.50
2023-05-14T04:34:06.520Z,9.50
2023-05-14T04:35:03.625Z,9.50
2023-05-14T04:36:03.652Z,9.50
2023-05-14T04:37:03.651Z,9.60
2023-05-14T04:38:03.649Z,9.50
2023-05-14T04:39:03.630Z,9.50
2023-05-14T04:40:03.692Z,9.60
2023-05-14T04:41:03.649Z,9.70
2023-05-14T04:42:03.661Z,9.70
2023-05-14T04:43:03.723Z,9.70
2023-05-14T04:44:05.881Z,9.90
2023-05-14T04:45:08.498Z,10.00
2023-05-14T04:46:04.142Z,10.00
2023-05-14T04:47:03.679Z,10.20
2023-05-14T04:48:04.020Z,10.40
2023-05-14T04:49:06.338Z,10.50
2023-05-14T04:50:03.876Z,10.50
2023-05-14T04:51:06.336Z,10.60
2023-05-14T04:52:03.629Z,10.70
2023-05-14T04:53:03.667Z,10.70
2023-05-14T04:54:03.679Z,10.70
2023-05-14T04:55:03.649Z,10.80
2023-05-14T04:56:03.652Z,10.80
2023-05-14T04:57:03.710Z,10.80
2023-05-14T04:59:03.697Z,10.90
2023-05-14T05:00:03.652Z,11.00
2023-05-14T05:01:08.321Z,11.30
2023-05-14T05:02:03.855Z,11.20
2023-05-14T05:03:03.763Z,11.40
2023-05-14T05:04:08.757Z,11.50
2023-05-14T05:05:03.682Z,11.60
2023-05-14T05:06:05.785Z,11.80
2023-05-14T05:07:08.343Z,12.10
2023-05-14T05:08:03.794Z,12.00
2023-05-14T05:09:03.669Z,12.20
2023-05-14T05:10:03.691Z,12.40
2023-05-14T05:11:08.377Z,13.00
2023-05-14T05:12:03.876Z,13.00
2023-05-14T05:13:03.668Z,13.20
2023-05-14T05:14:03.699Z,13.50
2023-05-14T05:15:08.329Z,14.10
2023-05-14T05:16:03.925Z,14.00
2023-05-14T05:17:03.729Z,14.30
2023-05-14T05:18:03.723Z,14.50
2023-05-14T05:19:03.750Z,14.70
2023-05-14T05:20:03.722Z,15.00
2023-05-14T05:21:03.970Z,15.20
2023-05-14T05:22:03.701Z,15.50
2023-05-14T05:23:03.689Z,15.70
2023-05-14T05:24:03.755Z,15.80
2023-05-14T05:26:03.672Z,15.80
2023-05-14T05:27:03.721Z,15.80
2023-05-14T05:28:03.703Z,15.90
2023-05-14T05:29:03.675Z,16.00
2023-05-14T05:30:03.714Z,16.10
2023-05-14T05:31:03.696Z,16.20
2023-05-14T05:32:16.023Z,16.30
2023-05-14T05:33:03.764Z,16.40
2023-05-14T05:34:03.704Z,16.40
2023-05-14T05:35:03.738Z,16.50
2023-05-14T05:37:03.729Z,16.80
2023-05-14T05:38:03.714Z,16.90
2023-05-14T05:39:03.703Z,17.10
2023-05-14T05:40:03.714Z,17.10
2023-05-14T05:41:05.980Z,17.30
2023-05-14T05:42:03.688Z,17.30
2023-05-14T05:43:03.681Z,17.30
2023-05-14T05:44:03.696Z,17.30
2023-05-14T05:45:06.580Z,16.90
2023-05-14T05:46:04.121Z,17.00
2023-05-14T05:47:03.919Z,16.90
2023-05-14T05:48:03.832Z,16.70
2023-05-14T05:49:03.694Z,16.60
2023-05-14T05:50:03.746Z,16.50
2023-05-14T05:52:03.741Z,16.20
2023-05-14T05:53:08.795Z,16.00
2023-05-14T05:54:03.730Z,16.00
2023-05-14T05:55:03.726Z,15.90
2023-05-14T05:56:03.706Z,15.80
2023-05-14T05:58:03.740Z,15.70
2023-05-14T05:59:03.741Z,15.60
2023-05-14T06:00:10.948Z,15.40
2023-05-14T06:01:11.595Z,15.30
2023-05-14T06:02:03.773Z,15.40
2023-05-14T06:03:03.775Z,15.40
2023-05-14T06:04:03.725Z,15.30
2023-05-14T06:05:03.799Z,15.30
2023-05-14T06:06:03.728Z,15.20
2023-05-14T06:07:03.725Z,15.20
2023-05-14T06:08:03.738Z,15.40
2023-05-14T06:09:03.715Z,15.10
2023-05-14T06:10:03.755Z,15.10
2023-05-14T06:12:03.747Z,15.10
2023-05-14T06:14:03.767Z,15.00
2023-05-14T06:15:03.732Z,15.00
2023-05-14T06:16:03.748Z,15.00
2023-05-14T06:17:03.789Z,15.10
2023-05-14T06:19:03.775Z,15.10
2023-05-14T06:20:03.787Z,15.10
2023-05-14T06:21:03.743Z,15.10
2023-05-14T06:22:03.750Z,15.20
2023-05-14T06:23:03.770Z,15.20
2023-05-14T06:24:03.770Z,15.20
2023-05-14T06:25:03.756Z,15.20
2023-05-14T06:26:03.834Z,15.20
2023-05-14T06:28:03.749Z,15.30
2023-05-14T06:29:05.845Z,15.30
2023-05-14T06:30:03.759Z,15.40
2023-05-14T06:31:03.787Z,15.40
2023-05-14T06:32:03.823Z,15.50
2023-05-14T06:33:03.801Z,15.50
2023-05-14T06:34:08.788Z,15.60
2023-05-14T06:35:03.796Z,15.50
2023-05-14T06:36:03.786Z,15.60
2023-05-14T06:37:03.774Z,15.70
2023-05-14T06:38:03.766Z,15.70
2023-05-14T06:39:03.797Z,15.80
2023-05-14T06:40:03.771Z,15.80
2023-05-14T06:41:06.056Z,15.90
2023-05-14T06:42:03.774Z,15.80
2023-05-14T06:43:03.941Z,15.90
2023-05-14T06:44:03.780Z,16.00
2023-05-14T06:45:03.769Z,16.00
2023-05-14T06:46:03.780Z,16.10
2023-05-14T06:47:03.813Z,16.20
2023-05-14T06:48:03.860Z,16.20
2023-05-14T06:49:03.822Z,16.30
2023-05-14T06:52:03.806Z,16.40
2023-05-14T06:53:11.067Z,16.50
2023-05-14T06:54:03.774Z,16.50
2023-05-14T06:55:03.819Z,16.60
2023-05-14T06:56:03.799Z,16.60
2023-05-14T06:57:08.584Z,16.70
2023-05-14T06:58:04.037Z,16.70
2023-05-14T06:59:03.792Z,16.70
2023-05-14T07:00:03.976Z,16.70
2023-05-14T07:01:03.802Z,16.70
2023-05-14T07:02:11.680Z,16.80
2023-05-14T07:03:06.642Z,16.90
2023-05-14T07:04:06.723Z,17.00
2023-05-14T07:05:03.822Z,16.90
2023-05-14T07:06:03.779Z,17.00
2023-05-14T07:07:06.342Z,17.30
2023-05-14T07:08:08.857Z,17.50
2023-05-14T07:10:06.424Z,17.70
2023-05-14T07:11:08.938Z,17.80
2023-05-14T07:12:10.921Z,18.00
2023-05-14T07:13:03.825Z,18.00
2023-05-14T07:14:03.798Z,18.00
2023-05-14T07:15:03.811Z,18.10
2023-05-14T07:16:03.823Z,18.10
2023-05-14T07:17:04.205Z,18.20
2023-05-14T07:18:06.498Z,18.30
2023-05-14T07:19:06.782Z,18.30
2023-05-14T07:20:08.499Z,18.40
2023-05-14T07:21:03.960Z,18.30
2023-05-14T07:22:03.782Z,18.30
2023-05-14T07:23:03.824Z,18.40
2023-05-14T07:24:03.851Z,18.40
2023-05-14T07:25:03.874Z,18.40
2023-05-14T07:27:03.873Z,18.40
2023-05-14T07:29:03.831Z,18.50
2023-05-14T07:31:03.892Z,18.60
2023-05-14T07:32:03.844Z,18.60
2023-05-14T07:33:03.918Z,18.50
2023-05-14T07:34:03.831Z,18.50
2023-05-14T07:35:03.903Z,18.60
2023-05-14T07:36:03.811Z,18.60
2023-05-14T07:37:03.825Z,18.50
2023-05-14T07:38:03.830Z,18.60
2023-05-14T07:39:08.539Z,18.60
2023-05-14T07:40:04.062Z,18.60
2023-05-14T07:41:08.753Z,18.60
2023-05-14T07:42:15.268Z,18.70
2023-05-14T07:43:03.827Z,18.70
2023-05-14T07:44:03.845Z,18.70
2023-05-14T07:45:03.820Z,18.70
2023-05-14T07:46:03.905Z,18.80
2023-05-14T07:47:03.853Z,18.90
2023-05-14T07:49:03.892Z,19.10
2023-05-14T07:51:03.857Z,19.30
2023-05-14T07:52:03.862Z,19.30
2023-05-14T07:53:03.833Z,19.30
2023-05-14T07:54:04.011Z,19.30
2023-05-14T07:55:03.841Z,19.30
2023-05-14T07:56:08.582Z,19.40
2023-05-14T07:57:04.086Z,19.30
2023-05-14T07:58:03.966Z,19.40
2023-05-14T08:00:03.863Z,19.30
2023-05-14T08:01:03.826Z,19.20
2023-05-14T08:02:03.855Z,19.30
2023-05-14T08:03:06.438Z,19.20
2023-05-14T08:04:04.233Z,19.20
2023-05-14T08:05:03.984Z,19.20
2023-05-14T08:07:03.861Z,19.30
2023-05-14T08:08:08.382Z,19.40
2023-05-14T08:09:03.925Z,19.40
2023-05-14T08:10:03.924Z,19.50
2023-05-14T08:12:03.856Z,19.40
2023-05-14T08:13:03.890Z,19.40
2023-05-14T08:15:03.891Z,19.50
2023-05-14T08:16:03.854Z,19.60
2023-05-14T08:17:03.998Z,19.60
2023-05-14T08:18:03.882Z,19.60
2023-05-14T08:19:03.936Z,19.70
2023-05-14T08:20:03.846Z,19.70
2023-05-14T08:21:03.983Z,19.80
2023-05-14T08:22:06.330Z,19.50
2023-05-14T08:23:03.858Z,19.70
2023-05-14T08:24:03.914Z,19.60
2023-05-14T08:25:03.915Z,19.40
2023-05-14T08:27:03.894Z,19.50
2023-05-14T08:28:03.896Z,19.50
2023-05-14T08:29:03.877Z,19.40
2023-05-14T08:30:08.495Z,19.30
2023-05-14T08:31:04.105Z,19.30
2023-05-14T08:32:12.090Z,19.30
2023-05-14T08:33:03.940Z,19.20
2023-05-14T08:34:03.890Z,19.10
2023-05-14T08:35:03.884Z,19.00
2023-05-14T08:36:03.884Z,18.90
2023-05-14T08:37:03.882Z,18.80
2023-05-14T08:38:03.904Z,18.90
2023-05-14T08:39:03.923Z,18.70
2023-05-14T08:41:11.064Z,18.70
2023-05-14T08:42:06.051Z,18.60
2023-05-14T08:43:03.895Z,18.60
2023-05-14T08:44:03.900Z,18.60
2023-05-14T08:45:06.072Z,18.50
2023-05-14T08:46:03.997Z,18.60
2023-05-14T08:47:03.912Z,18.60
2023-05-14T08:48:04.065Z,18.60
2023-05-14T08:50:03.924Z,18.60
2023-05-14T08:51:03.908Z,18.60
2023-05-14T08:53:03.905Z,18.80
2023-05-14T08:54:03.933Z,19.00
2023-05-14T08:55:03.949Z,19.00
2023-05-14T08:57:03.977Z,19.30
2023-05-14T08:58:03.900Z,19.50
2023-05-14T08:59:03.912Z,19.60
2023-05-14T09:00:08.609Z,19.60
2023-05-14T09:01:04.203Z,19.50
2023-05-14T09:02:03.995Z,19.50
2023-05-14T09:03:06.528Z,19.60
2023-05-14T09:04:08.313Z,19.60
2023-05-14T09:05:06.546Z,19.60
2023-05-14T09:06:04.024Z,19.60
2023-05-14T09:07:03.961Z,19.50
2023-05-14T09:08:03.945Z,19.50
2023-05-14T09:09:03.965Z,19.50
2023-05-14T09:10:04.061Z,19.40
2023-05-14T09:11:06.263Z,19.40
2023-05-14T09:12:04.009Z,19.30
2023-05-14T09:13:03.917Z,19.40
2023-05-14T09:14:03.928Z,19.30
2023-05-14T09:16:03.947Z,19.20
2023-05-14T09:17:03.930Z,19.10
2023-05-14T09:18:04.018Z,19.20
2023-05-14T09:19:04.211Z,19.10
2023-05-14T09:20:03.918Z,19.00
2023-05-14T09:21:03.957Z,19.00
2023-05-14T09:22:03.972Z,19.00
2023-05-14T09:24:03.927Z,19.00
2023-05-14T09:25:03.934Z,19.10
2023-05-14T09:26:03.918Z,19.20
2023-05-14T09:27:03.949Z,19.10
2023-05-14T09:28:08.616Z,19.10
2023-05-14T09:29:04.054Z,19.10
2023-05-14T09:30:03.942Z,19.00
2023-05-14T09:31:03.989Z,19.00
2023-05-14T09:32:04.084Z,19.00
2023-05-14T09:33:04.148Z,19.00
2023-05-14T09:34:08.658Z,19.00
2023-05-14T09:35:03.955Z,18.90
2023-05-14T09:36:04.027Z,18.90
2023-05-14T09:37:03.965Z,19.00
2023-05-14T09:38:06.113Z,18.90
2023-05-14T09:39:03.954Z,18.90
2023-05-14T09:40:03.946Z,19.10
2023-05-14T09:41:08.606Z,18.90
2023-05-14T09:42:04.079Z,18.90
2023-05-14T09:43:03.967Z,18.90
2023-05-14T09:44:11.086Z,18.90
2023-05-14T09:45:04.042Z,18.90
2023-05-14T09:46:03.982Z,18.90
2023-05-14T09:47:03.951Z,18.90
2023-05-14T09:48:04.100Z,18.90
2023-05-14T09:49:03.941Z,18.90
2023-05-14T09:50:03.956Z,18.90
2023-05-14T09:51:04.682Z,18.80
2023-05-14T09:52:03.985Z,18.70
2023-05-14T09:53:03.950Z,18.80
2023-05-14T09:54:04.014Z,18.90
2023-05-14T09:55:08.598Z,18.90
2023-05-14T09:56:06.678Z,18.90
2023-05-14T09:57:06.632Z,18.90
2023-05-14T09:58:04.063Z,19.00
2023-05-14T09:59:03.968Z,18.90
2023-05-14T10:00:08.616Z,19.00
2023-05-14T10:01:04.025Z,19.10
2023-05-14T10:02:03.966Z,19.10
2023-05-14T10:03:04.078Z,19.20
2023-05-14T10:05:04.019Z,19.30
2023-05-14T10:07:03.989Z,19.20
2023-05-14T10:09:04.095Z,19.40
2023-05-14T10:10:06.442Z,19.50
2023-05-14T10:11:04.105Z,19.50
2023-05-14T10:12:03.987Z,19.60
2023-05-14T10:13:04.007Z,19.70
2023-05-14T10:14:06.096Z,19.90
2023-05-14T10:16:04.049Z,20.00
2023-05-14T10:18:04.005Z,20.20
2023-05-14T10:19:04.005Z,20.10
2023-05-14T10:20:03.983Z,20.10
2023-05-14T10:21:04.010Z,20.20
2023-05-14T10:22:03.964Z,20.00
2023-05-14T10:23:03.995Z,20.10
2023-05-14T10:25:04.038Z,20.20
2023-05-14T10:26:04.048Z,20.10
2023-05-14T10:28:04.024Z,20.10
2023-05-14T10:29:04.140Z,20.20
2023-05-14T10:30:04.028Z,20.20
2023-05-14T10:31:04.032Z,20.20
2023-05-14T10:32:03.997Z,20.40
2023-05-14T10:33:04.065Z,20.50
2023-05-14T10:34:03.999Z,20.60
2023-05-14T10:35:04.020Z,20.50
2023-05-14T10:36:04.011Z,20.40
2023-05-14T10:37:04.002Z,20.50
2023-05-14T10:38:04.039Z,20.40
2023-05-14T10:40:04.010Z,20.40
2023-05-14T10:41:06.561Z,20.40
2023-05-14T10:43:04.047Z,20.40
2023-05-14T10:45:09.201Z,20.50
2023-05-14T10:47:04.173Z,20.50
2023-05-14T10:48:08.477Z,20.60
2023-05-14T10:49:04.035Z,20.60
2023-05-14T10:50:03.999Z,20.70
2023-05-14T10:51:04.003Z,20.80
2023-05-14T10:52:04.121Z,20.80
2023-05-14T10:53:03.991Z,20.70
2023-05-14T10:54:03.998Z,20.70
2023-05-14T10:56:04.023Z,20.80
2023-05-14T10:57:03.992Z,20.80
2023-05-14T10:58:04.032Z,20.90
2023-05-14T10:59:04.025Z,20.80
2023-05-14T11:00:08.729Z,20.80
2023-05-14T11:01:04.019Z,20.70
2023-05-14T11:02:04.084Z,20.90
2023-05-14T11:03:04.019Z,20.90
2023-05-14T11:04:04.065Z,20.90
2023-05-14T11:05:04.018Z,20.90
2023-05-14T11:06:04.046Z,21.00
2023-05-14T11:08:06.254Z,21.00
2023-05-14T11:09:04.016Z,21.00
2023-05-14T11:10:04.053Z,21.10
2023-05-14T11:11:11.386Z,21.00
2023-05-14T11:12:04.010Z,21.00
2023-05-14T11:13:04.018Z,21.00
2023-05-14T11:14:04.032Z,20.90
2023-05-14T11:15:04.084Z,20.90
2023-05-14T11:17:04.074Z,20.70
2023-05-14T11:18:04.004Z,20.70
2023-05-14T11:19:04.111Z,20.70
2023-05-14T11:20:04.012Z,20.70
2023-05-14T11:21:04.007Z,20.70
2023-05-14T11:22:04.036Z,20.80
2023-05-14T11:23:04.069Z,20.80
2023-05-14T11:24:04.051Z,20.80
2023-05-14T11:25:04.140Z,20.70
2023-05-14T11:26:04.202Z,20.80
2023-05-14T11:27:04.016Z,20.80
2023-05-14T11:28:04.074Z,20.80
2023-05-14T11:29:04.028Z,20.70
2023-05-14T11:30:04.072Z,20.60
2023-05-14T11:31:08.896Z,20.60
2023-05-14T11:33:04.036Z,20.60
2023-05-14T11:34:04.076Z,20.50
2023-05-14T11:36:04.026Z,20.40
2023-05-14T11:37:04.026Z,20.30
2023-05-14T11:38:04.235Z,20.30
2023-05-14T11:39:04.065Z,20.30
2023-05-14T11:40:04.102Z,20.20
2023-05-14T11:42:04.064Z,20.10
2023-05-14T11:43:06.401Z,20.00
2023-05-14T11:44:04.051Z,20.00
2023-05-14T11:45:04.079Z,20.00
2023-05-14T11:46:04.099Z,19.90
2023-05-14T11:48:04.031Z,19.90
2023-05-14T11:49:04.130Z,19.80
2023-05-14T11:50:07.984Z,19.80
2023-05-14T11:51:04.041Z,19.80
2023-05-14T11:52:04.076Z,19.90
2023-05-14T11:53:04.061Z,19.90
2023-05-14T11:54:04.079Z,19.90
2023-05-14T11:55:04.108Z,19.80
2023-05-14T11:56:04.086Z,19.80
2023-05-14T11:57:04.063Z,19.80
2023-05-14T11:58:04.083Z,19.80
2023-05-14T11:59:04.072Z,19.80
2023-05-14T12:00:06.068Z,19.70
2023-05-14T12:01:04.085Z,19.70
2023-05-14T12:02:04.095Z,19.70
2023-05-14T12:03:04.119Z,19.70
2023-05-14T12:05:04.044Z,19.60
2023-05-14T12:06:04.055Z,19.60
2023-05-14T12:07:08.690Z,19.50
2023-05-14T12:08:04.130Z,19.50
2023-05-14T12:09:04.064Z,19.50
2023-05-14T12:10:04.059Z,19.50
2023-05-14T12:11:04.108Z,19.50
2023-05-14T12:12:04.092Z,19.50
2023-05-14T12:13:04.085Z,19.50
2023-05-14T12:14:04.116Z,19.50
2023-05-14T12:15:04.112Z,19.50
2023-05-14T12:16:06.396Z,19.50
2023-05-14T12:17:04.045Z,19.40
2023-05-14T12:18:08.357Z,19.50
2023-05-14T12:19:04.117Z,19.50
2023-05-14T12:20:06.156Z,19.50
2023-05-14T12:21:04.107Z,19.50
2023-05-14T12:22:08.826Z,19.50
2023-05-14T12:24:04.102Z,19.50
2023-05-14T12:25:04.124Z,19.40
2023-05-14T12:26:06.595Z,19.40
2023-05-14T12:27:04.111Z,19.40
2023-05-14T12:28:04.082Z,19.30
2023-05-14T12:29:06.301Z,19.40
2023-05-14T12:30:19.686Z,19.40
2023-05-14T12:31:04.223Z,19.40
2023-05-14T12:33:04.133Z,19.40
2023-05-14T12:34:06.295Z,19.40
2023-05-14T12:35:04.111Z,19.40
2023-05-14T12:36:20.209Z,19.30
2023-05-14T12:37:04.171Z,19.40
2023-05-14T12:38:04.121Z,19.30
2023-05-14T12:39:06.314Z,19.40
2023-05-14T12:40:04.094Z,19.30
2023-05-14T12:41:04.090Z,19.40
2023-05-14T12:42:04.123Z,19.40
2023-05-14T12:43:04.109Z,19.30
2023-05-14T12:44:16.432Z,19.20
2023-05-14T12:45:04.070Z,19.20
2023-05-14T12:46:04.102Z,19.30
2023-05-14T12:47:04.121Z,19.20
2023-05-14T12:48:04.151Z,19.20
2023-05-14T12:49:04.172Z,19.10
2023-05-14T12:50:04.098Z,19.10
2023-05-14T12:51:04.094Z,19.00
2023-05-14T12:52:19.783Z,19.00
2023-05-14T12:53:04.124Z,19.00
2023-05-14T12:54:04.113Z,19.00
2023-05-14T12:55:04.182Z,18.90
2023-05-14T12:57:04.116Z,18.90
2023-05-14T12:58:06.323Z,18.80
2023-05-14T13:00:04.104Z,18.80
2023-05-14T13:01:04.146Z,18.80
2023-05-14T13:02:04.156Z,18.80
2023-05-14T13:04:04.173Z,18.80
2023-05-14T13:05:04.160Z,18.80
2023-05-14T13:06:04.110Z,18.80
2023-05-14T13:08:04.153Z,18.60
2023-05-14T13:10:08.726Z,18.70
2023-05-14T13:11:04.128Z,18.70
2023-05-14T13:12:04.166Z,18.70
2023-05-14T13:13:04.156Z,18.80
2023-05-14T13:14:04.143Z,18.70
2023-05-14T13:15:04.113Z,18.80
2023-05-14T13:16:04.109Z,18.70
2023-05-14T13:17:04.191Z,18.70
2023-05-14T13:18:04.191Z,18.70
2023-05-14T13:19:09.241Z,18.70
2023-05-14T13:20:06.635Z,18.70
2023-05-14T13:21:04.123Z,18.70
2023-05-14T13:23:04.186Z,18.70
2023-05-14T13:25:04.153Z,18.70
2023-05-14T13:27:04.143Z,18.70
2023-05-14T13:28:06.247Z,18.70
2023-05-14T13:29:04.162Z,18.70
2023-05-14T13:30:04.158Z,18.70
2023-05-14T13:31:04.202Z,18.70
2023-05-14T13:33:04.176Z,18.60
2023-05-14T13:34:08.836Z,18.70
2023-05-14T13:36:04.155Z,18.70
2023-05-14T13:37:04.186Z,18.70
2023-05-14T13:38:04.118Z,18.80
2023-05-14T13:39:04.196Z,18.80
2023-05-14T13:40:04.173Z,18.80
2023-05-14T13:41:04.194Z,18.80
2023-05-14T13:42:04.181Z,18.80
2023-05-14T13:43:04.158Z,18.80
2023-05-14T13:44:04.168Z,18.90
2023-05-14T13:45:04.190Z,18.90
2023-05-14T13:46:04.166Z,18.90
2023-05-14T13:47:11.592Z,18.90
2023-05-14T13:48:09.184Z,18.90
2023-05-14T13:49:04.178Z,18.90
2023-05-14T13:50:04.176Z,18.90
2023-05-14T13:51:05.897Z,18.90
2023-05-14T13:52:04.215Z,18.90
2023-05-14T13:53:04.225Z,18.90
2023-05-14T13:54:08.883Z,18.90
2023-05-14T13:55:04.219Z,18.90
2023-05-14T13:56:04.216Z,18.90
2023-05-14T13:57:04.133Z,18.90
2023-05-14T13:58:04.167Z,18.80
2023-05-14T13:59:04.145Z,18.80
2023-05-14T14:00:04.178Z,18.90
2023-05-14T14:01:04.171Z,18.90
2023-05-14T14:03:09.134Z,18.60
2023-05-14T14:04:04.228Z,18.70
2023-05-14T14:05:04.326Z,18.70
2023-05-14T14:07:04.300Z,18.60
2023-05-14T14:08:13.062Z,18.50
2023-05-14T14:09:04.254Z,18.50
2023-05-14T14:11:04.174Z,18.30
2023-05-14T14:12:08.876Z,18.20
2023-05-14T14:13:04.267Z,18.20
2023-05-14T14:14:04.192Z,18.20
2023-05-14T14:15:04.205Z,18.10
2023-05-14T14:16:04.215Z,18.00
2023-05-14T14:18:04.244Z,17.80
2023-05-14T14:19:04.233Z,17.80
2023-05-14T14:20:04.217Z,17.70